CYBWCYRV

Guest
Details From CYBW - Calgary Springbank
To CYRV - REVELSTOKE
Flight Number -
Tags generated
Created
Modified
Stats Distance 145 nm / 268 km
Max Altitude 14,700 ft / 4,481 m
Waypoints 4
Social Downloads 0
Likes 0
Share VATSIM

Download

Looking for another format? Having issues loading an existing format? Contact us
Advertisement - Login to hide

Notes

Basic altitude profile: - Ascent Rate: 1000ft/min - Ascent Speed: 80kts - Cruise Altitude: 85ft - Cruise Speed: 120kts - Descent Rate: 1000ft/min - Descent Speed: 100kts Options: - Use NATs: yes - Use PACOTS: yes - Use low airways: yes - Use high airways: no

Route

CYBW CANOP V304 SPRAE CYRV

ID Type Via Altitude Latitude Longitude Leg Dist Tot Dist Heading (true) Name
O CYBW APT - 0 ft / 0 m 51.11176˚ -114.37654˚ - 0 nm - Calgary Springbank
CANOP FIX - 3,000 ft / 914 m 51.06778˚ -114.59139˚ 8 nm 8 nm 252° / 252° -
SPRAE FIX V304 (AWY-LO) 14,700 ft / 4,481 m 51.00361˚ -115.45667˚ 32 nm 41 nm 264° / 263° -
O CYRV APT - 0 ft / 0 m 50.96667˚ -118.18333˚ 103 nm 144 nm 270° / 268° REVELSTOKE

Altitude Profile

Advertisement - Login to hide

CYBW

Details ICAO CYBW (YBW)
Name Calgary Springbank
Region Canada
Timezone America/Edmonton (UTC-7.0)
Stats Elevation 3,937 ft / 1,200 m (AMSL)
Location 51.111765° -114.376537°
Runways 2
Magnetic Variation 14.235° E

METAR

CYBW 181430Z AUTO 35011KT 300V360 3SM -SN FEW014 OVC024 M04/M05 A2965 RMK SLP088

Decode

TAF

TAF AMD CYBW 181306Z 1813/1901 36008KT 4SM -SN OVC030 TEMPO 1813/1815 1SM -SHSN OVC015 FM181500 26008KT P6SM OVC040 TEMPO 1815/1820 2SM -SHSN OVC020 FM182000 26010KT P6SM -SHSN BKN060 FM182200 24010KT P6SM FEW060 RMK FCST BASED ON AUTO OBS. NXT FCST BY 181800Z

Decode

Departure Runways

ID Width Length Bearing (true) Bearing (mag) Surface Threshold Offset Overrun Length
07 100 ft / 30 m 3,389 ft / 1,033 m 89.99° 75.75° Asphalt 0 ft / 0 m 0 ft / 0 m
16 75 ft / 23 m 3,083 ft / 940 m 180.71° 166.47° Asphalt 0 ft / 0 m 0 ft / 0 m
25 100 ft / 30 m 3,389 ft / 1,033 m 270.01° 255.77° Asphalt 0 ft / 0 m 0 ft / 0 m
34 75 ft / 23 m 3,083 ft / 940 m 0.71° 346.47° Asphalt 0 ft / 0 m 0 ft / 0 m

CYRV

Details ICAO CYRV (YRV)
Name REVELSTOKE
Region Canada
Timezone America/Vancouver (UTC-8.0)
Stats Elevation 1,459 ft / 445 m (AMSL)
Location 50.966665° -118.183335°
Runways 1
Magnetic Variation 15.537° E

METAR

CYRV 181436Z AUTO VRB02KT 8SM SCT007 BKN021 OVC120 M02/M02 A2984 RMK SLP127

Decode

TAF

Not found

Destination Runways

ID Width Length Bearing (true) Bearing (mag) Surface Threshold Offset Overrun Length
12 75 ft / 23 m 4,793 ft / 1,461 m 137.62° 122.08° Asphalt 0 ft / 0 m 0 ft / 0 m
30 75 ft / 23 m 4,793 ft / 1,461 m 317.63° 302.09° Asphalt 300 ft / 91 m 0 ft / 0 m

Popular Alternatives